createdAt,value
2022-10-16T00:01:21.821Z,18.00
2022-10-16T00:05:23.735Z,15.90
2022-10-16T00:09:25.732Z,15.60
2022-10-16T00:13:27.740Z,14.40
2022-10-16T00:17:30.220Z,16.00
2022-10-16T00:21:32.319Z,15.70
2022-10-16T00:25:34.233Z,16.20
2022-10-16T00:29:36.077Z,16.60
2022-10-16T00:33:40.212Z,15.00
2022-10-16T00:37:42.130Z,16.10
2022-10-16T00:41:43.974Z,15.60
2022-10-16T00:45:45.747Z,16.50
2022-10-16T00:49:50.078Z,15.00
2022-10-16T00:53:52.448Z,14.10
2022-10-16T00:57:55.048Z,14.50
2022-10-16T01:01:58.120Z,17.20
2022-10-16T01:06:26.827Z,14.90
2022-10-16T01:10:53.901Z,16.10
2022-10-16T01:15:09.672Z,15.20
2022-10-16T01:19:32.625Z,14.30
2022-10-16T01:23:52.308Z,15.90
2022-10-16T01:27:55.439Z,14.80
2022-10-16T01:32:02.693Z,15.20
2022-10-16T01:36:12.412Z,14.70
2022-10-16T01:40:19.913Z,14.90
2022-10-16T01:44:28.793Z,15.50
2022-10-16T01:48:33.715Z,15.30
2022-10-16T01:52:40.673Z,14.90
2022-10-16T01:56:44.037Z,15.30
2022-10-16T02:00:48.415Z,15.90
2022-10-16T02:04:58.837Z,15.10
2022-10-16T02:09:00.801Z,15.10
2022-10-16T02:13:37.659Z,16.20
2022-10-16T02:17:39.583Z,15.10
2022-10-16T02:21:47.215Z,15.70
2022-10-16T02:25:51.477Z,17.00
2022-10-16T02:30:00.716Z,14.50
2022-10-16T02:34:05.624Z,14.50
2022-10-16T02:42:14.208Z,16.00
2022-10-16T02:46:18.224Z,16.00
2022-10-16T02:50:20.211Z,16.00
2022-10-16T02:54:22.057Z,15.00
2022-10-16T02:58:23.878Z,15.10
2022-10-16T03:02:25.833Z,15.80
2022-10-16T03:06:27.676Z,16.20
2022-10-16T03:10:29.566Z,15.90
2022-10-16T03:14:31.493Z,15.50
2022-10-16T03:18:33.351Z,14.90
2022-10-16T03:22:35.290Z,14.00
2022-10-16T03:26:37.677Z,15.60
2022-10-16T03:30:40.316Z,15.50
2022-10-16T03:34:42.196Z,14.20
2022-10-16T03:38:45.020Z,14.20
2022-10-16T03:42:46.995Z,14.40
2022-10-16T03:46:48.885Z,14.30
2022-10-16T03:50:52.141Z,13.70
2022-10-16T03:54:54.078Z,14.10
2022-10-16T03:58:55.898Z,13.40
2022-10-16T04:02:57.786Z,13.40
2022-10-16T04:06:59.633Z,13.00
2022-10-16T04:11:02.080Z,15.20
2022-10-16T04:15:04.009Z,15.00
2022-10-16T04:19:05.883Z,14.60
2022-10-16T04:23:07.697Z,12.30
2022-10-16T04:27:09.526Z,13.50
2022-10-16T04:31:11.421Z,13.40
2022-10-16T04:35:13.232Z,13.40
2022-10-16T04:39:15.058Z,13.20
2022-10-16T04:43:16.952Z,14.00
2022-10-16T04:47:19.191Z,13.60
2022-10-16T04:51:21.111Z,14.10
2022-10-16T04:55:23.006Z,13.50
2022-10-16T04:59:24.858Z,14.50
2022-10-16T05:03:26.756Z,15.60
2022-10-16T05:07:28.799Z,14.60
2022-10-16T05:11:31.227Z,15.20
2022-10-16T05:15:33.019Z,13.60
2022-10-16T05:19:34.977Z,15.20
2022-10-16T05:23:36.782Z,13.70
2022-10-16T05:27:38.698Z,15.10
2022-10-16T05:31:40.657Z,14.90
2022-10-16T05:35:42.827Z,13.70
2022-10-16T05:39:44.696Z,13.30
2022-10-16T05:43:46.499Z,14.30
2022-10-16T05:47:48.322Z,15.10
2022-10-16T05:51:50.286Z,14.70
2022-10-16T05:55:53.678Z,14.00
2022-10-16T05:59:56.681Z,12.50
2022-10-16T06:03:59.028Z,12.90
2022-10-16T06:08:00.875Z,13.40
2022-10-16T06:12:03.022Z,14.10
2022-10-16T06:16:05.359Z,13.50
2022-10-16T06:20:07.547Z,13.00
2022-10-16T06:24:10.872Z,13.40
2022-10-16T06:28:14.940Z,13.20
2022-10-16T06:32:17.029Z,13.50
2022-10-16T06:36:19.096Z,13.80
2022-10-16T06:40:21.007Z,12.60
2022-10-16T06:44:22.986Z,12.60
2022-10-16T06:48:25.835Z,12.10
2022-10-16T06:52:30.797Z,13.20
2022-10-16T06:56:33.426Z,12.80
2022-10-16T07:00:35.700Z,12.00
2022-10-16T07:04:37.520Z,11.20
2022-10-16T07:08:41.701Z,11.80
2022-10-16T07:12:45.636Z,12.30
2022-10-16T07:16:48.787Z,12.10
2022-10-16T07:20:50.616Z,12.30
2022-10-16T07:24:53.111Z,11.20
2022-10-16T07:28:55.448Z,11.20
2022-10-16T07:32:57.373Z,11.70
2022-10-16T07:36:59.315Z,11.10
2022-10-16T07:41:05.229Z,10.50
2022-10-16T07:45:07.870Z,11.50
2022-10-16T07:49:09.824Z,10.90
2022-10-16T07:53:12.737Z,10.50
2022-10-16T07:57:19.863Z,9.70
2022-10-16T08:01:21.953Z,11.20
2022-10-16T08:05:23.806Z,10.80
2022-10-16T08:09:25.694Z,9.90
2022-10-16T08:13:27.679Z,11.10
2022-10-16T08:17:29.763Z,9.20
2022-10-16T08:21:31.602Z,9.70
2022-10-16T08:25:36.827Z,10.20
2022-10-16T08:29:39.132Z,9.80
2022-10-16T08:33:42.781Z,10.30
2022-10-16T08:37:44.715Z,10.20
2022-10-16T08:41:46.591Z,8.00
2022-10-16T08:46:16.487Z,9.90
2022-10-16T08:50:27.612Z,9.50
2022-10-16T08:54:41.248Z,9.40
2022-10-16T08:58:49.879Z,10.20
2022-10-16T09:03:03.905Z,8.50
2022-10-16T09:07:16.969Z,9.30
2022-10-16T09:11:27.995Z,8.90
2022-10-16T09:15:35.936Z,9.40
2022-10-16T09:19:46.959Z,9.20
2022-10-16T09:23:49.645Z,8.70
2022-10-16T09:27:54.015Z,8.40
2022-10-16T09:32:07.667Z,8.40
2022-10-16T09:36:10.983Z,9.50
2022-10-16T09:40:24.004Z,7.70
2022-10-16T09:44:30.413Z,8.00
2022-10-16T09:48:38.589Z,8.00
2022-10-16T09:56:46.063Z,7.50
2022-10-16T10:00:55.114Z,7.80
2022-10-16T10:04:57.827Z,7.10
2022-10-16T10:09:01.125Z,8.30
2022-10-16T10:13:03.169Z,7.80
2022-10-16T10:17:31.908Z,8.20
2022-10-16T10:21:34.525Z,7.60
2022-10-16T10:25:53.119Z,7.70
2022-10-16T10:30:07.703Z,7.20
2022-10-16T10:34:59.070Z,7.20
2022-10-16T10:39:08.394Z,8.10
2022-10-16T10:43:28.952Z,6.70
2022-10-16T10:47:57.538Z,8.00
2022-10-16T10:52:18.476Z,7.40
2022-10-16T10:56:52.755Z,7.40
2022-10-16T11:01:12.444Z,7.60
2022-10-16T11:05:14.249Z,8.10
2022-10-16T11:09:28.722Z,7.50
2022-10-16T11:13:50.767Z,8.20
2022-10-16T11:17:59.799Z,8.30
2022-10-16T11:22:23.113Z,7.70
2022-10-16T11:26:34.518Z,7.60
2022-10-16T11:31:11.607Z,7.70
2022-10-16T11:35:22.199Z,7.70
2022-10-16T11:39:31.258Z,7.20
2022-10-16T11:43:39.111Z,7.60
2022-10-16T11:48:00.298Z,6.90
2022-10-16T11:52:17.148Z,7.50
2022-10-16T11:56:21.510Z,7.30
2022-10-16T12:00:35.514Z,7.30
2022-10-16T12:04:51.699Z,6.90
2022-10-16T12:08:54.978Z,6.80
2022-10-16T12:12:58.170Z,7.00
2022-10-16T12:17:24.705Z,7.20
2022-10-16T12:21:31.931Z,8.00
2022-10-16T12:25:46.739Z,7.00
2022-10-16T12:29:56.719Z,7.20
2022-10-16T12:34:02.812Z,6.70
2022-10-16T12:38:18.302Z,7.50
2022-10-16T12:42:26.615Z,7.00
2022-10-16T12:46:33.662Z,7.00
2022-10-16T12:50:38.801Z,6.80
2022-10-16T12:54:42.429Z,6.40
2022-10-16T12:58:50.533Z,6.10
2022-10-16T13:07:35.899Z,6.00
2022-10-16T13:11:58.948Z,7.80
2022-10-16T13:16:13.165Z,7.00
2022-10-16T13:20:20.933Z,6.70
2022-10-16T13:24:52.106Z,6.90
2022-10-16T13:28:54.029Z,6.30
2022-10-16T13:33:13.948Z,7.30
2022-10-16T13:37:21.548Z,8.10
2022-10-16T13:41:23.428Z,7.60
2022-10-16T13:45:26.022Z,7.30
2022-10-16T13:49:28.647Z,7.60
2022-10-16T13:53:35.838Z,7.80
2022-10-16T13:57:37.949Z,7.90
2022-10-16T14:01:44.603Z,7.90
2022-10-16T14:05:48.809Z,8.00
2022-10-16T14:09:52.333Z,8.40
2022-10-16T14:13:55.433Z,7.70
2022-10-16T14:17:58.700Z,8.00
2022-10-16T14:22:02.714Z,8.40
2022-10-16T14:26:10.794Z,8.60
2022-10-16T14:34:35.549Z,8.20
2022-10-16T14:38:39.292Z,8.80
2022-10-16T14:42:44.673Z,8.20
2022-10-16T14:46:46.820Z,8.90
2022-10-16T14:50:48.868Z,8.00
2022-10-16T14:54:55.139Z,9.10
2022-10-16T14:58:57.784Z,9.70
2022-10-16T15:02:59.700Z,8.90
2022-10-16T15:07:01.467Z,8.60
2022-10-16T15:11:03.364Z,8.50
2022-10-16T15:15:23.687Z,8.40
2022-10-16T15:19:25.556Z,7.50
2022-10-16T15:23:27.476Z,8.30
2022-10-16T15:27:29.584Z,8.80
2022-10-16T15:31:32.800Z,8.90
2022-10-16T15:35:34.772Z,8.00
2022-10-16T15:39:41.248Z,9.80
2022-10-16T15:43:45.530Z,8.90
2022-10-16T15:47:47.888Z,7.80
2022-10-16T15:51:49.694Z,9.00
2022-10-16T15:55:51.729Z,8.40
2022-10-16T15:59:53.578Z,9.60
2022-10-16T16:03:56.263Z,8.90
2022-10-16T16:07:58.129Z,8.40
2022-10-16T16:12:01.509Z,8.70
2022-10-16T16:16:07.189Z,9.70
2022-10-16T16:20:09.904Z,10.30
2022-10-16T16:24:11.881Z,9.60
2022-10-16T16:28:14.878Z,10.20
2022-10-16T16:32:16.851Z,8.90
2022-10-16T16:36:19.683Z,9.40
2022-10-16T16:40:21.545Z,10.00
2022-10-16T16:44:23.565Z,10.40
2022-10-16T16:48:25.468Z,10.80
2022-10-16T16:52:29.957Z,10.80
2022-10-16T16:56:31.825Z,8.90
2022-10-16T17:00:33.814Z,9.80
2022-10-16T17:04:35.658Z,10.40
2022-10-16T17:08:38.912Z,10.50
2022-10-16T17:12:41.412Z,10.10
2022-10-16T17:16:48.115Z,10.40
2022-10-16T17:20:50.780Z,8.50
2022-10-16T17:24:54.258Z,10.40
2022-10-16T17:28:58.677Z,10.80
2022-10-16T17:33:01.594Z,10.10
2022-10-16T17:37:03.553Z,10.00
2022-10-16T17:41:23.249Z,9.30
2022-10-16T17:45:25.317Z,9.50
2022-10-16T17:49:27.206Z,9.70
2022-10-16T17:53:29.445Z,10.20
2022-10-16T17:57:31.336Z,9.70
2022-10-16T18:01:36.434Z,10.00
2022-10-16T18:05:38.299Z,20.40
2022-10-16T18:10:09.991Z,37.10
2022-10-16T18:14:03.131Z,18.90
2022-10-16T18:18:05.882Z,13.10
2022-10-16T18:22:07.844Z,19.30
2022-10-16T18:26:11.173Z,15.60
2022-10-16T18:30:13.565Z,14.20
2022-10-16T18:34:16.255Z,14.80
2022-10-16T18:38:19.223Z,14.70
2022-10-16T18:42:21.318Z,15.60
2022-10-16T18:46:25.108Z,13.10
2022-10-16T18:50:26.960Z,14.40
2022-10-16T18:54:30.393Z,14.10
2022-10-16T18:58:34.753Z,12.40
2022-10-16T19:02:36.607Z,11.40
2022-10-16T19:06:42.891Z,11.10
2022-10-16T19:10:44.934Z,11.30
2022-10-16T19:14:50.098Z,10.80
2022-10-16T19:18:55.048Z,12.40
2022-10-16T19:22:58.562Z,11.70
2022-10-16T19:27:00.440Z,12.00
2022-10-16T19:31:07.368Z,11.60
2022-10-16T19:35:09.353Z,12.40
2022-10-16T19:39:13.894Z,11.80
2022-10-16T19:43:16.121Z,11.80
2022-10-16T19:47:20.803Z,11.00
2022-10-16T19:51:26.319Z,10.60
2022-10-16T19:55:31.069Z,11.80
2022-10-16T19:59:33.092Z,11.90
2022-10-16T20:03:40.926Z,12.40
2022-10-16T20:07:42.741Z,11.10
2022-10-16T20:11:44.621Z,11.80
2022-10-16T20:15:47.390Z,13.20
2022-10-16T20:19:49.213Z,12.00
2022-10-16T20:23:51.588Z,14.30
2022-10-16T20:27:53.458Z,12.60
2022-10-16T20:31:55.511Z,11.90
2022-10-16T20:35:57.388Z,11.50
2022-10-16T20:39:59.268Z,12.00
2022-10-16T20:44:03.049Z,13.50
2022-10-16T20:48:05.399Z,14.30
2022-10-16T20:52:07.376Z,11.90
2022-10-16T20:56:09.385Z,11.30
2022-10-16T21:00:12.448Z,11.70
2022-10-16T21:04:14.290Z,12.20
2022-10-16T21:08:16.325Z,14.50
2022-10-16T21:12:18.224Z,14.50
2022-10-16T21:16:20.855Z,14.40
2022-10-16T21:20:22.804Z,13.70
2022-10-16T21:24:24.751Z,14.30
2022-10-16T21:28:29.958Z,13.70
2022-10-16T21:32:31.881Z,13.70
2022-10-16T21:36:36.455Z,11.60
2022-10-16T21:40:38.319Z,13.10
2022-10-16T21:44:40.205Z,12.30
2022-10-16T21:48:45.127Z,12.70
2022-10-16T21:52:46.976Z,14.20
2022-10-16T21:56:49.199Z,14.60
2022-10-16T22:00:51.140Z,13.80
2022-10-16T22:04:52.986Z,12.90
2022-10-16T22:09:00.978Z,12.70
2022-10-16T22:13:02.863Z,13.70
2022-10-16T22:17:04.743Z,13.10
2022-10-16T22:21:09.191Z,14.40
2022-10-16T22:25:11.233Z,13.60
2022-10-16T22:29:14.154Z,12.00
2022-10-16T22:33:15.983Z,13.40
2022-10-16T22:37:17.861Z,13.40
2022-10-16T22:41:20.932Z,12.30
2022-10-16T22:45:22.971Z,13.00
2022-10-16T22:49:24.966Z,12.30
2022-10-16T22:53:26.966Z,13.20
2022-10-16T22:57:28.825Z,13.80
2022-10-16T23:01:37.614Z,12.90
2022-10-16T23:05:41.619Z,12.90
2022-10-16T23:09:43.500Z,12.10
2022-10-16T23:13:45.840Z,12.90
2022-10-16T23:17:47.836Z,12.40
2022-10-16T23:21:49.731Z,12.50
2022-10-16T23:25:51.700Z,13.90
2022-10-16T23:29:53.598Z,13.50
2022-10-16T23:33:57.097Z,13.40
2022-10-16T23:37:58.984Z,14.80
2022-10-16T23:42:01.072Z,15.50
2022-10-16T23:46:03.440Z,14.30
2022-10-16T23:50:05.850Z,14.80
2022-10-16T23:54:08.016Z,15.70
2022-10-16T23:58:09.919Z,14.40
